createdAt,value
2018-12-19T00:00:56.785Z,-0.84
2018-12-19T00:02:03.100Z,-0.85
2018-12-19T00:03:09.466Z,-0.86
2018-12-19T00:04:15.878Z,-0.90
2018-12-19T00:05:22.206Z,-0.89
2018-12-19T00:06:28.548Z,-0.89
2018-12-19T00:07:34.927Z,-0.89
2018-12-19T00:08:41.358Z,-0.91
2018-12-19T00:09:47.698Z,-0.90
2018-12-19T00:10:54.923Z,-0.90
2018-12-19T00:12:01.308Z,-0.90
2018-12-19T00:13:07.459Z,-0.91
2018-12-19T00:14:13.869Z,-0.93
2018-12-19T00:15:20.233Z,-0.95
2018-12-19T00:16:26.621Z,-0.96
2018-12-19T00:17:32.976Z,-0.95
2018-12-19T00:18:39.384Z,-0.94
2018-12-19T00:19:45.792Z,-0.92
2018-12-19T00:20:52.180Z,-0.93
2018-12-19T00:21:58.505Z,-0.98
2018-12-19T00:23:04.813Z,-0.99
2018-12-19T00:24:11.141Z,-0.99
2018-12-19T00:25:17.283Z,-1.00
2018-12-19T00:26:23.627Z,-1.02
2018-12-19T00:27:29.988Z,-1.06
2018-12-19T00:28:36.332Z,-1.08
2018-12-19T00:29:42.760Z,-1.03
2018-12-19T00:30:49.098Z,-1.04
2018-12-19T00:31:55.437Z,-1.08
2018-12-19T00:33:01.754Z,-1.01
2018-12-19T00:34:08.117Z,-1.07
2018-12-19T00:35:14.493Z,-1.10
2018-12-19T00:36:20.858Z,-0.99
2018-12-19T00:37:27.193Z,-0.98
2018-12-19T00:38:33.547Z,-0.99
2018-12-19T00:39:39.908Z,-1.11
2018-12-19T00:40:46.293Z,-1.19
2018-12-19T00:41:52.666Z,-1.23
2018-12-19T00:42:59.019Z,-1.27
2018-12-19T00:44:05.329Z,-1.37
2018-12-19T00:45:11.689Z,-1.40
2018-12-19T00:46:18.026Z,-1.41
2018-12-19T00:47:24.372Z,-1.46
2018-12-19T00:48:30.771Z,-1.54
2018-12-19T00:49:37.151Z,-1.60
2018-12-19T00:50:43.502Z,-1.64
2018-12-19T00:51:49.828Z,-1.70
2018-12-19T00:52:56.173Z,-1.71
2018-12-19T00:54:02.158Z,-1.65
2018-12-19T00:55:08.209Z,-1.61
2018-12-19T00:56:15.147Z,-1.60
2018-12-19T00:57:22.189Z,-1.58
2018-12-19T00:58:28.549Z,-1.49
2018-12-19T00:59:34.942Z,-1.51
2018-12-19T01:00:41.303Z,-1.41
2018-12-19T01:01:47.648Z,-1.44
2018-12-19T01:02:54.027Z,-1.48
2018-12-19T01:04:00.393Z,-1.49
2018-12-19T01:05:06.081Z,-1.43
2018-12-19T01:06:12.452Z,-1.45
2018-12-19T01:07:18.817Z,-1.52
2018-12-19T01:08:25.114Z,-1.40
2018-12-19T01:09:31.438Z,-1.34
2018-12-19T01:10:37.558Z,-1.19
2018-12-19T01:11:43.889Z,-1.21
2018-12-19T01:12:50.218Z,-1.30
2018-12-19T01:13:56.212Z,-1.36
2018-12-19T01:15:02.592Z,-1.47
2018-12-19T01:16:08.930Z,-1.49
2018-12-19T01:17:15.625Z,-1.40
2018-12-19T01:18:21.989Z,-1.44
2018-12-19T01:19:28.411Z,-1.47
2018-12-19T01:20:34.807Z,-1.47
2018-12-19T01:21:41.112Z,-1.63
2018-12-19T01:22:47.518Z,-1.56
2018-12-19T01:23:53.871Z,-1.45
2018-12-19T01:25:00.248Z,-1.60
2018-12-19T01:26:06.209Z,-1.58
2018-12-19T01:27:12.608Z,-1.70
2018-12-19T01:28:18.937Z,-1.70
2018-12-19T01:29:25.307Z,-1.42
2018-12-19T01:30:31.649Z,-1.55
2018-12-19T01:31:38.002Z,-1.68
2018-12-19T01:32:44.321Z,-1.35
2018-12-19T01:33:50.661Z,-1.38
2018-12-19T01:34:57.067Z,-1.60
2018-12-19T01:36:03.430Z,-1.65
2018-12-19T01:37:09.771Z,-1.38
2018-12-19T01:38:16.147Z,-1.23
2018-12-19T01:39:22.982Z,-1.52
2018-12-19T01:40:29.342Z,-1.62
2018-12-19T01:41:35.704Z,-1.53
2018-12-19T01:42:42.086Z,-1.59
2018-12-19T01:43:48.404Z,-1.48
2018-12-19T01:44:54.794Z,-1.21
2018-12-19T01:46:01.190Z,-1.15
2018-12-19T01:47:07.521Z,-1.47
2018-12-19T01:48:13.924Z,-1.32
2018-12-19T01:49:20.332Z,-1.16
2018-12-19T01:50:26.733Z,-1.33
2018-12-19T01:51:32.910Z,-1.39
2018-12-19T01:52:39.246Z,-1.50
2018-12-19T01:53:45.605Z,-1.68
2018-12-19T01:54:51.969Z,-1.82
2018-12-19T01:55:58.296Z,-1.70
2018-12-19T01:57:04.665Z,-1.55
2018-12-19T01:58:10.983Z,-1.46
2018-12-19T01:59:17.629Z,-1.28
2018-12-19T02:00:23.792Z,-1.68
2018-12-19T02:01:28.758Z,-1.90
2018-12-19T02:02:34.068Z,-1.96
2018-12-19T02:03:39.368Z,-2.03
2018-12-19T02:04:44.670Z,-2.15
2018-12-19T02:05:50.826Z,-2.10
2018-12-19T02:06:57.191Z,-1.91
2018-12-19T02:08:03.529Z,-1.91
2018-12-19T02:09:09.472Z,-1.88
2018-12-19T02:10:15.832Z,-1.94
2018-12-19T02:11:22.191Z,-1.92
2018-12-19T02:12:28.508Z,-1.94
2018-12-19T02:13:34.884Z,-1.93
2018-12-19T02:14:41.221Z,-1.69
2018-12-19T02:15:47.567Z,-1.66
2018-12-19T02:16:53.898Z,-1.69
2018-12-19T02:18:00.243Z,-1.63
2018-12-19T02:19:06.609Z,-1.68
2018-12-19T02:20:12.960Z,-1.61
2018-12-19T02:21:19.348Z,-1.60
2018-12-19T02:22:26.923Z,-1.68
2018-12-19T02:23:32.544Z,-1.76
2018-12-19T02:24:38.899Z,-1.84
2018-12-19T02:25:44.923Z,-1.87
2018-12-19T02:26:51.264Z,-1.83
2018-12-19T02:27:57.624Z,-1.90
2018-12-19T02:29:03.608Z,-1.81
2018-12-19T02:30:09.257Z,-1.83
2018-12-19T02:31:15.598Z,-1.86
2018-12-19T02:32:21.961Z,-1.89
2018-12-19T02:33:28.322Z,-1.92
2018-12-19T02:34:34.705Z,-1.94
2018-12-19T02:35:41.046Z,-1.92
2018-12-19T02:36:47.411Z,-1.91
2018-12-19T02:37:53.755Z,-1.89
2018-12-19T02:39:00.110Z,-1.87
2018-12-19T02:40:05.776Z,-1.90
2018-12-19T02:41:12.113Z,-1.92
2018-12-19T02:42:18.440Z,-1.88
2018-12-19T02:43:24.795Z,-1.89
2018-12-19T02:44:31.149Z,-1.90
2018-12-19T02:45:37.509Z,-1.74
2018-12-19T02:46:43.889Z,-1.75
2018-12-19T02:47:50.331Z,-1.79
2018-12-19T02:48:56.722Z,-1.88
2018-12-19T02:50:02.681Z,-1.94
2018-12-19T02:51:09.037Z,-1.99
2018-12-19T02:52:15.381Z,-1.94
2018-12-19T02:53:21.675Z,-1.87
2018-12-19T02:54:28.031Z,-1.79
2018-12-19T02:55:34.396Z,-1.66
2018-12-19T02:56:40.714Z,-1.61
2018-12-19T02:57:47.036Z,-1.75
2018-12-19T02:58:53.389Z,-1.72
2018-12-19T02:59:59.767Z,-1.83
2018-12-19T03:01:06.138Z,-1.83
2018-12-19T03:02:12.515Z,-1.82
2018-12-19T03:03:19.302Z,-1.81
2018-12-19T03:04:25.684Z,-1.88
2018-12-19T03:05:31.996Z,-1.83
2018-12-19T03:06:38.581Z,-1.75
2018-12-19T03:07:45.341Z,-1.79
2018-12-19T03:08:51.720Z,-1.79
2018-12-19T03:09:58.029Z,-1.73
2018-12-19T03:11:04.707Z,-1.79
2018-12-19T03:12:11.070Z,-1.78
2018-12-19T03:13:17.429Z,-1.82
2018-12-19T03:14:25.658Z,-1.82
2018-12-19T03:15:32.011Z,-1.77
2018-12-19T03:16:38.079Z,-1.82
2018-12-19T03:17:44.447Z,-1.84
2018-12-19T03:18:50.770Z,-1.80
2018-12-19T03:19:57.137Z,-1.80
2018-12-19T03:21:03.536Z,-1.59
2018-12-19T03:22:09.907Z,-1.61
2018-12-19T03:23:16.273Z,-1.61
2018-12-19T03:24:22.666Z,-1.54
2018-12-19T03:25:29.379Z,-1.58
2018-12-19T03:26:37.607Z,-1.62
2018-12-19T03:27:45.583Z,-1.62
2018-12-19T03:28:51.981Z,-1.74
2018-12-19T03:29:58.344Z,-1.63
2018-12-19T03:31:04.739Z,-1.53
2018-12-19T03:32:11.259Z,-1.69
2018-12-19T03:33:17.618Z,-1.74
2018-12-19T03:34:23.930Z,-1.68
2018-12-19T03:35:30.289Z,-1.68
2018-12-19T03:36:36.686Z,-1.65
2018-12-19T03:37:42.988Z,-1.66
2018-12-19T03:38:49.288Z,-1.69
2018-12-19T03:39:55.609Z,-1.71
2018-12-19T03:41:01.649Z,-1.51
2018-12-19T03:42:08.010Z,-1.52
2018-12-19T03:43:14.344Z,-1.57
2018-12-19T03:44:20.702Z,-1.56
2018-12-19T03:45:27.094Z,-1.63
2018-12-19T03:46:33.473Z,-1.68
2018-12-19T03:47:39.853Z,-1.70
2018-12-19T03:48:51.645Z,-1.75
2018-12-19T03:49:57.791Z,-1.75
2018-12-19T03:51:04.184Z,-1.75
2018-12-19T03:52:10.540Z,-1.75
2018-12-19T03:53:16.900Z,-1.77
2018-12-19T03:54:22.639Z,-1.76
2018-12-19T03:55:29.005Z,-1.73
2018-12-19T03:56:35.377Z,-1.81
2018-12-19T03:57:41.736Z,-1.74
2018-12-19T03:58:48.602Z,-1.70
2018-12-19T03:59:55.390Z,-1.57
2018-12-19T04:01:01.807Z,-1.60
2018-12-19T04:02:08.316Z,-1.59
2018-12-19T04:03:14.696Z,-1.58
2018-12-19T04:04:21.055Z,-1.59
2018-12-19T04:05:27.388Z,-1.57
2018-12-19T04:06:33.774Z,-1.54
2018-12-19T04:07:40.131Z,-1.55
2018-12-19T04:08:46.473Z,-1.53
2018-12-19T04:09:57.792Z,-1.49
2018-12-19T04:10:59.302Z,-1.51
2018-12-19T04:12:05.305Z,-1.53
2018-12-19T04:13:11.630Z,-1.57
2018-12-19T04:14:18.028Z,-1.54
2018-12-19T04:15:24.422Z,-1.57
2018-12-19T04:16:30.812Z,-1.63
2018-12-19T04:17:37.125Z,-1.35
2018-12-19T04:18:43.711Z,-1.54
2018-12-19T04:19:50.627Z,-1.61
2018-12-19T04:20:57.651Z,-1.66
2018-12-19T04:22:04.812Z,-1.51
2018-12-19T04:23:11.708Z,-1.34
2018-12-19T04:24:18.265Z,-1.52
2018-12-19T04:25:24.635Z,-1.59
2018-12-19T04:26:31.030Z,-1.53
2018-12-19T04:27:37.380Z,-1.48
2018-12-19T04:28:43.806Z,-1.38
2018-12-19T04:29:50.616Z,-1.45
2018-12-19T04:30:56.988Z,-1.43
2018-12-19T04:32:03.398Z,-1.42
2018-12-19T04:33:09.733Z,-1.35
2018-12-19T04:34:16.116Z,-1.29
2018-12-19T04:35:22.482Z,-1.34
2018-12-19T04:36:28.852Z,-1.45
2018-12-19T04:37:35.191Z,-1.44
2018-12-19T04:38:41.281Z,-1.42
2018-12-19T04:39:47.696Z,-1.39
2018-12-19T04:40:54.078Z,-1.33
2018-12-19T04:42:00.449Z,-1.26
2018-12-19T04:43:06.821Z,-1.20
2018-12-19T04:44:13.177Z,-1.17
2018-12-19T04:45:19.573Z,-1.16
2018-12-19T04:46:26.001Z,-1.13
2018-12-19T04:47:32.309Z,-1.01
2018-12-19T04:48:38.706Z,-0.95
2018-12-19T04:49:45.500Z,-0.97
2018-12-19T04:50:52.022Z,-0.95
2018-12-19T04:51:58.442Z,-0.96
2018-12-19T04:53:04.809Z,-1.00
2018-12-19T04:54:11.157Z,-1.00
2018-12-19T04:55:17.545Z,-0.99
2018-12-19T04:56:23.883Z,-0.98
2018-12-19T04:57:30.257Z,-1.01
2018-12-19T04:58:37.856Z,-1.06
2018-12-19T04:59:43.004Z,-1.07
2018-12-19T05:00:49.368Z,-1.03
2018-12-19T05:01:55.816Z,-0.96
2018-12-19T05:03:02.165Z,-1.00
2018-12-19T05:04:08.518Z,-1.04
2018-12-19T05:05:14.561Z,-1.00
2018-12-19T05:06:20.977Z,-0.98
2018-12-19T05:07:27.099Z,-0.86
2018-12-19T05:08:33.503Z,-0.85
2018-12-19T05:09:40.230Z,-0.78
2018-12-19T05:10:46.655Z,-0.87
2018-12-19T05:11:53.245Z,-0.79
2018-12-19T05:13:00.564Z,-0.73
2018-12-19T05:14:06.133Z,-0.82
2018-12-19T05:15:12.650Z,-0.89
2018-12-19T05:16:19.035Z,-0.83
2018-12-19T05:17:25.405Z,-0.73
2018-12-19T05:18:31.789Z,-0.67
2018-12-19T05:19:38.164Z,-0.64
2018-12-19T05:20:44.540Z,-0.59
2018-12-19T05:21:50.888Z,-0.56
2018-12-19T05:22:57.255Z,-0.50
2018-12-19T05:24:03.599Z,-0.49
2018-12-19T05:25:10.013Z,-0.61
2018-12-19T05:26:16.384Z,-0.46
2018-12-19T05:27:22.724Z,-0.43
2018-12-19T05:28:29.088Z,-0.45
2018-12-19T05:29:35.438Z,-0.45
2018-12-19T05:30:41.815Z,-0.48
2018-12-19T05:31:48.164Z,-0.41
2018-12-19T05:32:54.528Z,-0.50
2018-12-19T05:34:00.873Z,-0.32
2018-12-19T05:35:06.499Z,-0.32
2018-12-19T05:36:12.852Z,-0.57
2018-12-19T05:37:19.171Z,-0.62
2018-12-19T05:38:25.506Z,-0.48
2018-12-19T05:39:31.830Z,-0.45
2018-12-19T05:40:38.170Z,-0.58
2018-12-19T05:41:44.559Z,-0.59
2018-12-19T05:42:50.924Z,-0.59
2018-12-19T05:43:57.236Z,-0.52
2018-12-19T05:45:03.203Z,-0.37
2018-12-19T05:46:09.188Z,-0.28
2018-12-19T05:47:15.280Z,-0.42
2018-12-19T05:48:21.728Z,-0.69
2018-12-19T05:49:28.094Z,-0.70
2018-12-19T05:50:34.185Z,-0.67
2018-12-19T05:51:40.582Z,-0.56
2018-12-19T05:52:46.674Z,-0.58
2018-12-19T05:53:53.002Z,-0.48
2018-12-19T05:54:59.146Z,-0.52
2018-12-19T05:56:05.541Z,-0.61
2018-12-19T05:57:11.692Z,-0.68
2018-12-19T05:58:18.042Z,-0.64
2018-12-19T05:59:24.353Z,-0.45
2018-12-19T06:00:32.554Z,-0.39
2018-12-19T06:01:38.916Z,-0.37
2018-12-19T06:02:45.232Z,-0.34
2018-12-19T06:03:51.595Z,-0.32
2018-12-19T06:04:57.908Z,-0.28
2018-12-19T06:06:03.891Z,-0.25
2018-12-19T06:07:10.242Z,-0.23
2018-12-19T06:08:16.569Z,-0.24
2018-12-19T06:09:23.108Z,-0.20
2018-12-19T06:10:29.480Z,-0.17
2018-12-19T06:11:36.028Z,-0.14
2018-12-19T06:12:42.383Z,-0.10
2018-12-19T06:13:48.755Z,-0.06
2018-12-19T06:14:55.144Z,-0.02
2018-12-19T06:16:01.578Z,0.00
2018-12-19T06:17:07.634Z,0.01
2018-12-19T06:18:14.215Z,-0.01
2018-12-19T06:19:21.417Z,0.04
2018-12-19T06:20:27.845Z,0.00
2018-12-19T06:21:34.233Z,0.04
2018-12-19T06:22:40.761Z,0.10
2018-12-19T06:23:46.865Z,0.08
2018-12-19T06:24:55.111Z,0.06
2018-12-19T06:26:02.512Z,0.07
2018-12-19T06:27:08.895Z,0.09
2018-12-19T06:28:15.245Z,0.10
2018-12-19T06:29:21.601Z,0.09
2018-12-19T06:30:27.756Z,0.08
2018-12-19T06:31:33.734Z,0.08
2018-12-19T06:32:39.865Z,0.05
2018-12-19T06:33:45.942Z,0.05
2018-12-19T06:34:51.969Z,0.08
2018-12-19T06:35:58.331Z,0.06
2018-12-19T06:37:04.729Z,0.03
2018-12-19T06:38:11.113Z,-0.01
2018-12-19T06:39:17.497Z,-0.08
2018-12-19T06:40:23.868Z,-0.10
2018-12-19T06:41:30.216Z,-0.12
2018-12-19T06:42:36.573Z,-0.13
2018-12-19T06:43:42.878Z,-0.05
2018-12-19T06:44:49.222Z,0.10
2018-12-19T06:45:55.566Z,0.13
2018-12-19T06:47:01.953Z,0.02
2018-12-19T06:48:08.357Z,0.04
2018-12-19T06:49:14.738Z,0.01
2018-12-19T06:50:21.080Z,-0.01
2018-12-19T06:51:27.470Z,0.05
2018-12-19T06:52:33.836Z,0.04
2018-12-19T06:53:40.154Z,-0.03
2018-12-19T06:54:46.490Z,0.05
2018-12-19T06:55:52.846Z,0.03
2018-12-19T06:56:59.201Z,0.02
2018-12-19T06:58:05.170Z,0.09
2018-12-19T06:59:11.517Z,0.06
2018-12-19T07:00:17.886Z,0.04
2018-12-19T07:01:24.503Z,0.05
2018-12-19T07:02:31.066Z,0.10
2018-12-19T07:03:38.325Z,0.10
2018-12-19T07:04:45.422Z,0.12
2018-12-19T07:05:51.817Z,0.15
2018-12-19T07:06:58.165Z,0.16
2018-12-19T07:08:04.175Z,0.20
2018-12-19T07:09:10.253Z,0.20
2018-12-19T07:10:16.640Z,0.20
2018-12-19T07:11:23.057Z,0.20
2018-12-19T07:12:29.727Z,0.19
2018-12-19T07:13:36.013Z,0.16
2018-12-19T07:14:42.349Z,0.15
2018-12-19T07:15:48.667Z,0.10
2018-12-19T07:16:55.821Z,0.11
2018-12-19T07:18:02.902Z,0.23
2018-12-19T07:19:10.507Z,0.22
2018-12-19T07:20:18.232Z,0.23
2018-12-19T07:21:26.257Z,0.25
2018-12-19T07:22:34.535Z,0.29
2018-12-19T07:23:41.586Z,0.35
2018-12-19T07:24:49.855Z,0.31
2018-12-19T07:25:58.254Z,0.32
2018-12-19T07:27:06.487Z,0.35
2018-12-19T07:28:15.285Z,0.37
2018-12-19T07:29:22.963Z,0.33
2018-12-19T07:30:32.101Z,0.31
2018-12-19T07:31:39.483Z,0.38
2018-12-19T07:32:47.374Z,0.38
2018-12-19T07:33:55.541Z,0.39
2018-12-19T07:35:02.580Z,0.41
2018-12-19T07:36:09.886Z,0.45
2018-12-19T07:37:16.612Z,0.50
2018-12-19T07:38:22.953Z,0.53
2018-12-19T07:39:29.319Z,0.52
2018-12-19T07:40:35.709Z,0.53
2018-12-19T07:41:42.129Z,0.52
2018-12-19T07:42:48.509Z,0.57
2018-12-19T07:43:54.865Z,0.59
2018-12-19T07:45:01.199Z,0.63
2018-12-19T07:46:07.516Z,0.65
2018-12-19T07:47:13.938Z,0.70
2018-12-19T07:48:20.045Z,0.66
2018-12-19T07:49:26.375Z,0.63
2018-12-19T07:50:32.724Z,0.62
2018-12-19T07:51:39.104Z,0.60
2018-12-19T07:52:45.257Z,0.63
2018-12-19T07:53:51.640Z,0.61
2018-12-19T07:54:58.027Z,0.62
2018-12-19T07:56:04.154Z,0.67
2018-12-19T07:57:10.540Z,0.68
2018-12-19T07:58:16.849Z,0.76
2018-12-19T07:59:23.205Z,0.73
2018-12-19T08:00:29.575Z,0.72
2018-12-19T08:01:35.964Z,0.77
2018-12-19T08:02:42.341Z,0.74
2018-12-19T08:03:48.642Z,0.78
2018-12-19T08:04:54.729Z,0.77
2018-12-19T08:06:01.058Z,0.74
2018-12-19T08:07:07.412Z,0.74
2018-12-19T08:08:13.757Z,0.78
2018-12-19T08:09:20.120Z,0.77
2018-12-19T08:10:26.468Z,0.77
2018-12-19T08:11:32.808Z,0.76
2018-12-19T08:12:39.199Z,0.85
2018-12-19T08:13:45.530Z,0.78
2018-12-19T08:14:51.600Z,0.84
2018-12-19T08:15:57.925Z,0.90
2018-12-19T08:17:05.020Z,0.87
2018-12-19T08:18:12.226Z,0.86
2018-12-19T08:19:21.021Z,0.98
2018-12-19T08:20:28.817Z,0.99
2018-12-19T08:21:36.164Z,0.94
2018-12-19T08:22:43.028Z,0.93
2018-12-19T08:23:51.277Z,0.99
2018-12-19T08:24:59.337Z,1.02
2018-12-19T08:26:07.776Z,0.99
2018-12-19T08:27:15.088Z,1.07
2018-12-19T08:28:22.918Z,1.33
2018-12-19T08:29:30.400Z,1.31
2018-12-19T08:30:37.931Z,1.21
2018-12-19T08:31:46.409Z,1.13
2018-12-19T08:32:54.204Z,1.12
2018-12-19T08:34:02.278Z,1.07
2018-12-19T08:35:10.326Z,1.03
2018-12-19T08:36:17.703Z,1.02
2018-12-19T08:37:25.592Z,1.01
2018-12-19T08:38:32.939Z,1.03
2018-12-19T08:39:40.219Z,1.01
2018-12-19T08:40:47.761Z,1.04
2018-12-19T08:41:54.911Z,1.06
2018-12-19T08:43:02.738Z,1.06
2018-12-19T08:44:10.151Z,1.09
2018-12-19T08:45:18.023Z,1.14
2018-12-19T08:46:25.144Z,1.13
2018-12-19T08:47:32.483Z,1.13
2018-12-19T08:48:41.070Z,1.17
2018-12-19T08:49:48.418Z,1.17
2018-12-19T08:50:56.141Z,1.22
2018-12-19T08:52:03.775Z,1.21
2018-12-19T08:53:11.230Z,1.20
2018-12-19T08:54:18.981Z,1.23
2018-12-19T08:55:26.306Z,1.30
2018-12-19T08:56:33.367Z,1.29
2018-12-19T08:57:40.326Z,1.29
2018-12-19T08:58:47.485Z,1.40
2018-12-19T08:59:54.730Z,1.43
2018-12-19T09:01:02.016Z,1.39
2018-12-19T09:02:09.416Z,1.41
2018-12-19T09:03:16.557Z,1.40
2018-12-19T09:04:25.939Z,1.47
2018-12-19T09:05:31.759Z,1.46
2018-12-19T09:06:40.083Z,1.44
2018-12-19T09:07:47.520Z,1.41
2018-12-19T09:08:55.056Z,1.50
2018-12-19T09:10:02.036Z,1.52
2018-12-19T09:11:08.051Z,1.53
2018-12-19T09:12:14.430Z,1.53
2018-12-19T09:13:20.737Z,1.58
2018-12-19T09:14:27.069Z,1.60
2018-12-19T09:15:38.829Z,1.61
2018-12-19T09:16:45.188Z,1.65
2018-12-19T09:17:51.577Z,1.62
2018-12-19T09:18:57.905Z,1.61
2018-12-19T09:20:03.640Z,1.60
2018-12-19T09:21:10.009Z,1.64
2018-12-19T09:22:16.129Z,1.71
2018-12-19T09:23:22.488Z,1.69
2018-12-19T09:24:28.482Z,1.66
2018-12-19T09:25:34.836Z,1.63
2018-12-19T09:26:41.239Z,1.66
2018-12-19T09:27:47.641Z,1.75
2018-12-19T09:28:54.021Z,1.80
2018-12-19T09:30:00.004Z,1.71
2018-12-19T09:31:05.962Z,1.73
2018-12-19T09:32:12.296Z,1.68
2018-12-19T09:33:18.683Z,1.68
2018-12-19T09:34:25.000Z,1.67
2018-12-19T09:35:31.326Z,1.75
2018-12-19T09:36:37.679Z,1.77
2018-12-19T09:37:44.035Z,1.78
2018-12-19T09:38:50.421Z,1.83
2018-12-19T09:39:56.724Z,1.78
2018-12-19T09:41:03.066Z,1.74
2018-12-19T09:42:09.453Z,1.80
2018-12-19T09:43:15.820Z,1.77
2018-12-19T09:44:22.196Z,1.81
2018-12-19T09:45:28.519Z,1.80
2018-12-19T09:46:34.873Z,1.81
2018-12-19T09:47:42.031Z,1.79
2018-12-19T09:48:48.359Z,1.84
2018-12-19T09:49:54.711Z,1.81
2018-12-19T09:51:01.082Z,1.85
2018-12-19T09:52:07.106Z,2.09
2018-12-19T09:53:13.262Z,2.08
2018-12-19T09:54:19.613Z,2.16
2018-12-19T09:55:25.948Z,2.13
2018-12-19T09:56:32.305Z,2.17
2018-12-19T09:57:38.474Z,2.16
2018-12-19T09:58:44.822Z,2.10
2018-12-19T09:59:51.208Z,2.16
2018-12-19T10:00:57.562Z,2.24
2018-12-19T10:02:03.670Z,2.16
2018-12-19T10:03:10.025Z,2.18
2018-12-19T10:04:16.412Z,2.20
2018-12-19T10:05:22.772Z,2.36
2018-12-19T10:06:29.101Z,2.37
2018-12-19T10:07:35.489Z,2.41
2018-12-19T10:08:41.760Z,2.45
2018-12-19T10:09:49.181Z,2.49
2018-12-19T10:10:56.047Z,2.48
2018-12-19T10:12:02.441Z,2.58
2018-12-19T10:13:08.848Z,2.58
2018-12-19T10:14:15.181Z,2.54
2018-12-19T10:15:21.513Z,2.58
2018-12-19T10:16:27.815Z,2.53
2018-12-19T10:17:33.852Z,2.52
2018-12-19T10:18:40.160Z,2.52
2018-12-19T10:19:46.494Z,2.52
2018-12-19T10:20:52.820Z,2.57
2018-12-19T10:21:59.247Z,2.59
2018-12-19T10:23:05.272Z,2.55
2018-12-19T10:24:11.617Z,2.55
2018-12-19T10:25:17.938Z,2.53
2018-12-19T10:26:24.294Z,2.52
2018-12-19T10:27:30.628Z,2.52
2018-12-19T10:28:36.973Z,2.53
2018-12-19T10:29:43.301Z,2.59
2018-12-19T10:30:49.635Z,2.66
2018-12-19T10:31:56.050Z,2.68
2018-12-19T10:33:02.456Z,2.66
2018-12-19T10:34:08.806Z,2.62
2018-12-19T10:35:15.133Z,2.64
2018-12-19T10:36:21.222Z,2.61
2018-12-19T10:37:27.586Z,2.59
2018-12-19T10:38:33.892Z,2.63
2018-12-19T10:39:39.877Z,2.64
2018-12-19T10:40:46.187Z,2.69
2018-12-19T10:41:52.468Z,2.69
2018-12-19T10:42:58.839Z,2.71
2018-12-19T10:44:04.968Z,2.75
2018-12-19T10:45:10.990Z,2.68
2018-12-19T10:46:17.312Z,2.74
2018-12-19T10:47:23.616Z,2.77
2018-12-19T10:48:29.936Z,2.76
2018-12-19T10:49:36.260Z,2.84
2018-12-19T10:50:42.557Z,2.97
2018-12-19T10:51:48.866Z,2.89
2018-12-19T10:52:55.199Z,2.90
2018-12-19T10:54:02.058Z,2.87
2018-12-19T10:55:08.561Z,2.85
2018-12-19T10:56:14.914Z,2.91
2018-12-19T10:57:21.294Z,2.91
2018-12-19T10:58:27.581Z,2.92
2018-12-19T10:59:33.868Z,2.94
2018-12-19T11:00:45.609Z,2.93
2018-12-19T11:01:51.928Z,3.00
2018-12-19T11:02:58.062Z,3.00
2018-12-19T11:04:04.076Z,3.18
2018-12-19T11:05:10.356Z,3.15
2018-12-19T11:06:16.649Z,3.12
2018-12-19T11:07:23.016Z,3.17
2018-12-19T11:08:29.309Z,3.15
2018-12-19T11:09:35.674Z,3.20
2018-12-19T11:10:42.011Z,3.24
2018-12-19T11:11:48.316Z,3.30
2018-12-19T11:12:54.686Z,3.27
2018-12-19T11:14:00.960Z,3.22
2018-12-19T11:15:06.337Z,3.37
2018-12-19T11:16:12.752Z,3.43
2018-12-19T11:17:19.106Z,3.37
2018-12-19T11:18:25.432Z,3.34
2018-12-19T11:19:31.761Z,3.29
2018-12-19T11:20:38.102Z,3.31
2018-12-19T11:21:44.477Z,3.24
2018-12-19T11:22:50.843Z,3.27
2018-12-19T11:23:56.869Z,3.35
2018-12-19T11:25:02.810Z,3.33
2018-12-19T11:26:09.153Z,3.32
2018-12-19T11:27:15.086Z,3.50
2018-12-19T11:28:21.403Z,3.50
2018-12-19T11:29:27.700Z,3.60
2018-12-19T11:30:33.668Z,3.52
2018-12-19T11:31:39.604Z,3.49
2018-12-19T11:32:46.009Z,3.52
2018-12-19T11:33:52.310Z,3.52
2018-12-19T11:34:58.666Z,3.52
2018-12-19T11:36:04.717Z,3.45
2018-12-19T11:37:11.090Z,3.54
2018-12-19T11:38:17.448Z,3.62
2018-12-19T11:39:23.809Z,3.54
2018-12-19T11:40:30.140Z,3.52
2018-12-19T11:41:39.180Z,3.60
2018-12-19T11:42:42.888Z,3.53
2018-12-19T11:43:49.267Z,3.51
2018-12-19T11:44:56.867Z,3.57
2018-12-19T11:46:01.593Z,3.59
2018-12-19T11:47:07.965Z,3.56
2018-12-19T11:48:14.354Z,3.56
2018-12-19T11:49:20.654Z,3.57
2018-12-19T11:50:26.987Z,3.54
2018-12-19T11:51:33.303Z,3.54
2018-12-19T11:52:39.620Z,3.85
2018-12-19T11:53:46.012Z,3.97
2018-12-19T11:54:52.320Z,3.97
2018-12-19T11:55:58.687Z,4.00
2018-12-19T11:57:04.787Z,3.84
2018-12-19T11:58:11.427Z,3.85
2018-12-19T11:59:17.929Z,3.84
2018-12-19T12:00:24.332Z,3.76
2018-12-19T12:01:30.731Z,3.82
2018-12-19T12:02:37.135Z,3.89
2018-12-19T12:03:43.164Z,4.04
2018-12-19T12:04:49.520Z,4.13
2018-12-19T12:05:55.815Z,4.18
2018-12-19T12:07:01.510Z,4.20
2018-12-19T12:08:07.891Z,4.16
2018-12-19T12:09:14.138Z,4.21
2018-12-19T12:10:20.162Z,4.25
2018-12-19T12:11:26.765Z,4.10
2018-12-19T12:12:33.105Z,4.03
2018-12-19T12:13:39.458Z,3.93
2018-12-19T12:14:45.797Z,3.90
2018-12-19T12:15:52.116Z,3.96
2018-12-19T12:16:58.440Z,3.95
2018-12-19T12:18:04.795Z,3.84
2018-12-19T12:19:11.185Z,3.98
2018-12-19T12:20:17.520Z,3.89
2018-12-19T12:21:23.830Z,3.83
2018-12-19T12:22:30.174Z,3.77
2018-12-19T12:23:36.560Z,3.80
2018-12-19T12:24:42.885Z,3.75
2018-12-19T12:25:49.240Z,3.77
2018-12-19T12:26:55.695Z,3.74
2018-12-19T12:28:02.043Z,3.77
2018-12-19T12:29:08.396Z,3.80
2018-12-19T12:30:14.366Z,3.70
2018-12-19T12:31:20.667Z,3.71
2018-12-19T12:32:27.026Z,3.71
2018-12-19T12:33:33.420Z,3.66
2018-12-19T12:34:39.781Z,3.65
2018-12-19T12:35:45.977Z,3.67
2018-12-19T12:36:52.285Z,3.67
2018-12-19T12:37:58.656Z,3.65
2018-12-19T12:39:04.075Z,3.70
2018-12-19T12:40:10.012Z,3.77
2018-12-19T12:41:17.579Z,3.84
2018-12-19T12:42:24.386Z,3.79
2018-12-19T12:43:30.821Z,3.84
2018-12-19T12:44:36.925Z,3.79
2018-12-19T12:45:43.348Z,3.72
2018-12-19T12:46:49.701Z,3.73
2018-12-19T12:47:56.038Z,3.71
2018-12-19T12:49:02.355Z,3.66
2018-12-19T12:50:08.007Z,3.67
2018-12-19T12:51:14.312Z,3.70
2018-12-19T12:52:20.661Z,3.74
2018-12-19T12:53:27.058Z,3.74
2018-12-19T12:54:33.435Z,3.78
2018-12-19T12:55:39.823Z,3.67
2018-12-19T12:56:46.215Z,3.64
2018-12-19T12:57:52.527Z,3.74
2018-12-19T12:58:58.974Z,3.97
2018-12-19T13:00:04.618Z,4.10
2018-12-19T13:01:11.002Z,4.06
2018-12-19T13:02:17.377Z,3.83
2018-12-19T13:03:23.752Z,3.89
2018-12-19T13:04:30.067Z,3.84
2018-12-19T13:05:36.464Z,3.75
2018-12-19T13:06:42.808Z,3.65
2018-12-19T13:07:49.221Z,3.68
2018-12-19T13:08:55.616Z,3.63
2018-12-19T13:10:01.941Z,3.59
2018-12-19T13:11:08.254Z,3.74
2018-12-19T13:12:14.636Z,3.97
2018-12-19T13:13:20.998Z,4.04
2018-12-19T13:14:27.089Z,3.88
2018-12-19T13:15:39.121Z,3.81
2018-12-19T13:16:45.456Z,3.79
2018-12-19T13:17:51.598Z,3.84
2018-12-19T13:18:57.977Z,3.76
2018-12-19T13:20:03.671Z,3.71
2018-12-19T13:21:10.017Z,3.66
2018-12-19T13:22:16.378Z,3.61
2018-12-19T13:23:23.258Z,3.77
2018-12-19T13:24:29.310Z,3.89
2018-12-19T13:25:35.677Z,3.87
2018-12-19T13:26:42.049Z,3.89
2018-12-19T13:27:48.468Z,4.01
2018-12-19T13:28:54.996Z,3.96
2018-12-19T13:30:01.360Z,3.80
2018-12-19T13:31:07.336Z,3.75
2018-12-19T13:32:13.098Z,3.72
2018-12-19T13:33:19.529Z,3.82
2018-12-19T13:34:25.831Z,3.79
2018-12-19T13:35:32.197Z,3.81
2018-12-19T13:36:38.562Z,3.83
2018-12-19T13:37:44.877Z,3.77
2018-12-19T13:38:51.226Z,4.08
2018-12-19T13:39:57.560Z,4.04
2018-12-19T13:41:03.918Z,3.92
2018-12-19T13:42:10.213Z,4.02
2018-12-19T13:43:16.648Z,3.87
2018-12-19T13:44:23.054Z,4.07
2018-12-19T13:45:29.529Z,3.98
2018-12-19T13:46:36.004Z,3.94
2018-12-19T13:47:42.310Z,3.91
2018-12-19T13:48:48.673Z,3.91
2018-12-19T13:49:55.017Z,4.03
2018-12-19T13:51:01.376Z,4.00
2018-12-19T13:52:07.405Z,3.90
2018-12-19T13:53:13.774Z,3.85
2018-12-19T13:54:20.177Z,3.86
2018-12-19T13:55:26.480Z,3.93
2018-12-19T13:56:32.121Z,4.05
2018-12-19T13:57:38.420Z,3.96
2018-12-19T13:58:44.596Z,3.91
2018-12-19T13:59:50.917Z,4.05
2018-12-19T14:00:57.237Z,3.95
2018-12-19T14:02:03.554Z,3.98
2018-12-19T14:03:09.912Z,3.91
2018-12-19T14:04:16.067Z,3.90
2018-12-19T14:05:22.352Z,3.90
2018-12-19T14:06:29.317Z,3.85
2018-12-19T14:07:36.181Z,3.80
2018-12-19T14:08:42.550Z,3.81
2018-12-19T14:09:48.624Z,3.77
2018-12-19T14:10:54.938Z,3.83
2018-12-19T14:12:01.356Z,3.81
2018-12-19T14:13:07.488Z,3.76
2018-12-19T14:14:13.812Z,3.94
2018-12-19T14:15:20.136Z,3.87
2018-12-19T14:16:26.489Z,3.83
2018-12-19T14:17:32.867Z,4.00
2018-12-19T14:18:39.368Z,4.01
2018-12-19T14:19:45.932Z,3.93
2018-12-19T14:20:52.361Z,3.91
2018-12-19T14:21:59.183Z,3.95
2018-12-19T14:23:08.572Z,3.91
2018-12-19T14:24:15.325Z,4.04
2018-12-19T14:25:21.700Z,4.18
2018-12-19T14:26:28.083Z,4.15
2018-12-19T14:27:34.090Z,4.08
2018-12-19T14:28:40.513Z,4.20
2018-12-19T14:29:46.874Z,4.21
2018-12-19T14:30:53.572Z,4.10
2018-12-19T14:32:00.542Z,4.25